Aviation Digital Data Service (ADDS)

Output produced by METARs form (2254 UTC 18 December 2018)
found at http://aviationweather.gov/metar/data/
 
KLBX 182157Z 1822/1918 10008KT P6SM BKN010 BKN035 
     FM190300 09005KT P6SM VCSH SCT015 BKN025 
     FM190800 08005KT 6SM -SHRA BR SCT007 OVC015